createdAt,value
2022-10-01T00:02:10.663Z,5.00
2022-10-01T00:04:42.286Z,5.37
2022-10-01T00:07:15.034Z,6.10
2022-10-01T00:09:42.929Z,5.73
2022-10-01T00:12:10.648Z,9.70
2022-10-01T00:14:39.501Z,6.73
2022-10-01T00:17:07.395Z,6.53
2022-10-01T00:19:35.255Z,7.07
2022-10-01T00:22:03.371Z,7.17
2022-10-01T00:24:32.471Z,8.07
2022-10-01T00:27:00.452Z,7.43
2022-10-01T00:29:28.186Z,7.00
2022-10-01T00:31:56.353Z,9.13
2022-10-01T00:34:24.827Z,8.57
2022-10-01T00:36:52.561Z,9.60
2022-10-01T00:39:20.327Z,11.03
2022-10-01T00:41:49.836Z,10.03
2022-10-01T00:44:33.366Z,11.33
2022-10-01T00:47:06.261Z,11.57
2022-10-01T00:49:36.692Z,12.10
2022-10-01T00:52:07.587Z,12.07
2022-10-01T00:54:40.601Z,11.40
2022-10-01T00:57:10.212Z,11.73
2022-10-01T00:59:38.621Z,11.97
2022-10-01T01:02:06.441Z,13.53
2022-10-01T01:04:34.268Z,13.30
2022-10-01T01:07:04.732Z,13.10
2022-10-01T01:09:35.136Z,14.17
2022-10-01T01:12:18.901Z,14.23
2022-10-01T01:14:56.049Z,13.27
2022-10-01T01:17:28.455Z,13.67
2022-10-01T01:20:16.491Z,14.33
2022-10-01T01:22:48.978Z,14.83
2022-10-01T01:25:20.102Z,13.77
2022-10-01T01:28:05.099Z,13.90
2022-10-01T01:30:34.186Z,13.20
2022-10-01T01:33:05.920Z,13.87
2022-10-01T01:35:39.132Z,12.63
2022-10-01T01:38:12.537Z,14.07
2022-10-01T01:40:42.536Z,13.90
2022-10-01T01:43:20.490Z,13.80
2022-10-01T01:45:50.892Z,13.63
2022-10-01T01:48:18.708Z,13.57
2022-10-01T01:50:53.204Z,12.20
2022-10-01T01:53:21.204Z,12.77
2022-10-01T01:55:50.195Z,12.97
2022-10-01T01:58:20.507Z,12.37
2022-10-01T02:00:52.832Z,12.93
2022-10-01T02:03:22.278Z,11.87
2022-10-01T02:06:10.541Z,11.97
2022-10-01T02:08:42.774Z,12.43
2022-10-01T02:11:21.513Z,11.70
2022-10-01T02:14:01.367Z,12.43
2022-10-01T02:16:34.554Z,12.30
2022-10-01T02:19:13.440Z,11.80
2022-10-01T02:21:43.014Z,12.37
2022-10-01T02:24:19.763Z,12.53
2022-10-01T02:26:50.826Z,11.80
2022-10-01T02:29:22.999Z,11.77
2022-10-01T02:31:55.600Z,11.43
2022-10-01T02:34:27.577Z,11.20
2022-10-01T02:36:57.983Z,10.80
2022-10-01T02:39:28.768Z,10.03
2022-10-01T02:41:57.724Z,9.47
2022-10-01T02:44:31.551Z,9.90
2022-10-01T02:47:03.908Z,9.87
2022-10-01T02:49:32.465Z,9.57
2022-10-01T02:52:07.954Z,9.67
2022-10-01T02:54:41.074Z,9.80
2022-10-01T02:57:22.987Z,9.47
2022-10-01T02:59:52.719Z,9.80
2022-10-01T03:02:21.121Z,8.63
2022-10-01T03:04:48.993Z,8.87
2022-10-01T03:07:18.541Z,8.77
2022-10-01T03:09:46.303Z,9.97
2022-10-01T03:12:14.387Z,9.57
2022-10-01T03:14:42.179Z,9.57
2022-10-01T03:17:11.925Z,9.17
2022-10-01T03:19:40.230Z,10.43
2022-10-01T03:22:08.650Z,10.57
2022-10-01T03:24:36.539Z,12.13
2022-10-01T03:27:04.411Z,10.60
2022-10-01T03:29:32.380Z,10.63
2022-10-01T03:32:00.174Z,10.67
2022-10-01T03:34:29.565Z,9.93
2022-10-01T03:36:57.433Z,10.67
2022-10-01T03:39:25.230Z,10.17
2022-10-01T03:41:53.026Z,9.40
2022-10-01T03:44:20.741Z,9.80
2022-10-01T03:46:48.609Z,9.53
2022-10-01T03:49:16.737Z,10.23
2022-10-01T03:51:46.217Z,9.53
2022-10-01T03:54:14.248Z,8.67
2022-10-01T03:56:43.043Z,8.33
2022-10-01T03:59:11.087Z,7.80
2022-10-01T04:01:39.171Z,8.53
2022-10-01T04:04:07.717Z,8.90
2022-10-01T04:06:35.474Z,8.27
2022-10-01T04:09:04.819Z,8.97
2022-10-01T04:11:32.892Z,8.93
2022-10-01T04:14:00.768Z,8.87
2022-10-01T04:16:28.642Z,8.03
2022-10-01T04:18:56.443Z,8.13
2022-10-01T04:21:24.181Z,9.10
2022-10-01T04:23:52.881Z,7.83
2022-10-01T04:26:22.030Z,8.33
2022-10-01T04:28:49.798Z,7.30
2022-10-01T04:31:26.451Z,8.10
2022-10-01T04:33:55.830Z,7.90
2022-10-01T04:36:24.585Z,8.80
2022-10-01T04:38:56.670Z,7.97
2022-10-01T04:41:30.411Z,8.00
2022-10-01T04:44:00.057Z,7.70
2022-10-01T04:46:28.746Z,7.10
2022-10-01T04:48:56.547Z,8.33
2022-10-01T04:51:24.611Z,8.13
2022-10-01T04:53:52.384Z,8.40
2022-10-01T04:56:20.145Z,8.27
2022-10-01T04:58:49.284Z,7.87
2022-10-01T05:01:17.048Z,7.97
2022-10-01T05:03:44.960Z,8.07
2022-10-01T05:06:12.699Z,7.73
2022-10-01T05:08:40.448Z,8.70
2022-10-01T05:11:08.228Z,7.90
2022-10-01T05:13:36.097Z,8.77
2022-10-01T05:16:05.371Z,9.53
2022-10-01T05:18:33.202Z,8.70
2022-10-01T05:21:05.776Z,7.40
2022-10-01T05:23:33.851Z,7.03
2022-10-01T05:26:02.533Z,7.33
2022-10-01T05:28:30.925Z,8.00
2022-10-01T05:31:01.593Z,7.73
2022-10-01T05:33:31.993Z,7.83
2022-10-01T05:35:59.732Z,7.00
2022-10-01T05:38:27.544Z,7.33
2022-10-01T05:40:55.318Z,6.47
2022-10-01T05:43:23.096Z,6.87
2022-10-01T05:45:51.265Z,8.47
2022-10-01T05:48:19.123Z,9.00
2022-10-01T05:50:49.944Z,6.30
2022-10-01T05:53:17.726Z,7.07
2022-10-01T05:55:45.535Z,6.47
2022-10-01T05:58:14.518Z,7.23
2022-10-01T06:00:43.559Z,7.37
2022-10-01T06:03:13.606Z,7.07
2022-10-01T06:05:41.903Z,6.90
2022-10-01T06:08:11.021Z,6.73
2022-10-01T06:10:39.817Z,7.43
2022-10-01T06:13:08.099Z,6.63
2022-10-01T06:15:38.491Z,6.60
2022-10-01T06:18:07.833Z,7.47
2022-10-01T06:20:36.257Z,6.50
2022-10-01T06:23:05.808Z,7.50
2022-10-01T06:25:36.435Z,7.00
2022-10-01T06:28:05.876Z,6.87
2022-10-01T06:30:36.781Z,6.07
2022-10-01T06:33:06.127Z,6.50
2022-10-01T06:35:35.824Z,6.80
2022-10-01T06:38:03.627Z,7.17
2022-10-01T06:40:31.672Z,6.37
2022-10-01T06:43:00.831Z,5.73
2022-10-01T06:45:30.647Z,5.87
2022-10-01T06:48:02.624Z,6.57
2022-10-01T06:50:31.428Z,5.73
2022-10-01T06:52:59.976Z,5.77
2022-10-01T06:55:29.521Z,5.70
2022-10-01T06:57:58.759Z,6.77
2022-10-01T07:00:29.404Z,6.80
2022-10-01T07:02:57.776Z,7.07
2022-10-01T07:05:26.548Z,6.33
2022-10-01T07:07:54.833Z,5.70
2022-10-01T07:10:23.407Z,5.57
2022-10-01T07:12:52.105Z,4.60
2022-10-01T07:15:23.547Z,5.17
2022-10-01T07:17:53.655Z,4.80
2022-10-01T07:20:22.310Z,4.30
2022-10-01T07:22:56.789Z,4.13
2022-10-01T07:25:25.146Z,4.50
2022-10-01T07:27:56.898Z,4.60
2022-10-01T07:30:24.999Z,4.10
2022-10-01T07:32:54.524Z,3.50
2022-10-01T07:35:23.022Z,3.67
2022-10-01T07:37:53.590Z,3.97
2022-10-01T07:40:21.408Z,4.27
2022-10-01T07:42:55.402Z,4.47
2022-10-01T07:45:23.868Z,3.03
2022-10-01T07:47:57.792Z,3.30
2022-10-01T07:50:26.537Z,2.83
2022-10-01T07:52:56.267Z,3.17
2022-10-01T07:55:26.954Z,8.80
2022-10-01T07:57:57.885Z,3.23
2022-10-01T08:00:27.174Z,3.00
2022-10-01T08:02:57.045Z,2.70
2022-10-01T08:05:27.096Z,3.10
2022-10-01T08:07:58.656Z,4.23
2022-10-01T08:10:26.733Z,2.10
2022-10-01T08:13:01.314Z,3.50
2022-10-01T08:15:29.198Z,2.23
2022-10-01T08:18:01.363Z,2.03
2022-10-01T08:20:29.160Z,3.40
2022-10-01T08:23:02.903Z,1.90
2022-10-01T08:25:33.179Z,2.00
2022-10-01T08:28:01.417Z,1.70
2022-10-01T08:30:30.141Z,1.63
2022-10-01T08:33:00.731Z,1.70
2022-10-01T08:35:30.141Z,1.60
2022-10-01T08:38:02.355Z,1.60
2022-10-01T08:40:36.780Z,1.63
2022-10-01T08:43:08.815Z,1.60
2022-10-01T08:45:41.691Z,1.87
2022-10-01T08:48:19.779Z,1.57
2022-10-01T08:50:53.731Z,1.60
2022-10-01T08:53:31.371Z,1.70
2022-10-01T08:56:01.460Z,2.00
2022-10-01T08:58:38.272Z,1.77
2022-10-01T09:01:06.279Z,1.73
2022-10-01T09:03:35.648Z,1.73
2022-10-01T09:06:16.024Z,1.93
2022-10-01T09:08:56.289Z,1.73
2022-10-01T09:11:38.439Z,1.70
2022-10-01T09:14:25.000Z,1.77
2022-10-01T09:17:02.130Z,1.40
2022-10-01T09:19:47.750Z,1.43
2022-10-01T09:22:26.144Z,1.30
2022-10-01T09:25:02.166Z,2.47
2022-10-01T09:27:37.664Z,1.97
2022-10-01T09:30:09.024Z,1.83
2022-10-01T09:32:42.692Z,3.83
2022-10-01T09:35:22.002Z,1.80
2022-10-01T09:37:55.855Z,1.50
2022-10-01T09:40:47.869Z,1.40
2022-10-01T09:43:23.017Z,1.30
2022-10-01T09:45:51.399Z,1.60
2022-10-01T09:48:29.505Z,1.13
2022-10-01T09:51:07.790Z,2.13
2022-10-01T09:53:41.145Z,1.50
2022-10-01T09:56:15.858Z,1.77
2022-10-01T09:58:49.227Z,1.40
2022-10-01T10:01:22.903Z,1.50
2022-10-01T10:03:58.997Z,1.57
2022-10-01T10:06:30.333Z,2.43
2022-10-01T10:09:01.200Z,1.47
2022-10-01T10:11:31.833Z,2.63
2022-10-01T10:14:03.674Z,2.63
2022-10-01T10:16:35.079Z,1.80
2022-10-01T10:19:09.607Z,1.90
2022-10-01T10:21:38.942Z,1.90
2022-10-01T10:24:20.374Z,3.50
2022-10-01T10:26:55.699Z,2.50
2022-10-01T10:29:28.706Z,2.03
2022-10-01T10:31:56.546Z,2.20
2022-10-01T10:34:32.970Z,3.17
2022-10-01T10:37:06.140Z,2.10
2022-10-01T10:39:37.113Z,2.77
2022-10-01T10:42:07.081Z,2.07
2022-10-01T10:44:40.074Z,2.20
2022-10-01T10:47:11.065Z,1.90
2022-10-01T10:49:45.555Z,2.30
2022-10-01T10:52:37.337Z,2.00
2022-10-01T10:55:23.112Z,2.10
2022-10-01T10:57:55.604Z,3.10
2022-10-01T11:00:27.494Z,4.80
2022-10-01T11:02:58.819Z,2.63
2022-10-01T11:05:31.837Z,2.53
2022-10-01T11:08:04.079Z,2.33
2022-10-01T11:10:42.159Z,2.30
2022-10-01T11:13:38.033Z,2.83
2022-10-01T11:16:22.213Z,2.87
2022-10-01T11:19:01.876Z,2.50
2022-10-01T11:21:48.592Z,2.80
2022-10-01T11:24:33.162Z,2.57
2022-10-01T11:27:07.721Z,3.27
2022-10-01T11:29:49.477Z,2.30
2022-10-01T11:32:25.114Z,3.23
2022-10-01T11:35:35.026Z,2.30
2022-10-01T11:38:31.669Z,2.20
2022-10-01T11:41:07.130Z,2.57
2022-10-01T11:43:42.312Z,4.03
2022-10-01T11:46:15.126Z,2.30
2022-10-01T11:48:48.080Z,2.20
2022-10-01T11:51:19.166Z,1.90
2022-10-01T11:53:50.783Z,2.20
2022-10-01T11:56:46.364Z,2.80
2022-10-01T11:59:22.545Z,2.60
2022-10-01T12:01:56.435Z,2.20
2022-10-01T12:04:32.718Z,2.57
2022-10-01T12:07:06.386Z,2.53
2022-10-01T12:09:44.952Z,2.87
2022-10-01T12:12:19.936Z,2.10
2022-10-01T12:14:55.245Z,2.17
2022-10-01T12:17:29.529Z,3.80
2022-10-01T12:19:59.714Z,2.37
2022-10-01T12:22:31.537Z,2.50
2022-10-01T12:24:59.554Z,2.37
2022-10-01T12:27:49.509Z,2.40
2022-10-01T12:30:21.349Z,4.23
2022-10-01T12:33:14.361Z,2.10
2022-10-01T12:35:58.638Z,2.40
2022-10-01T12:38:41.933Z,2.97
2022-10-01T12:41:24.924Z,2.10
2022-10-01T12:44:10.349Z,1.80
2022-10-01T12:46:49.768Z,3.27
2022-10-01T12:49:26.031Z,3.03
2022-10-01T12:52:05.558Z,2.13
2022-10-01T12:54:59.217Z,2.77
2022-10-01T12:57:47.258Z,3.67
2022-10-01T13:00:19.951Z,3.27
2022-10-01T13:03:19.967Z,3.43
2022-10-01T13:05:59.409Z,2.67
2022-10-01T13:08:43.950Z,2.63
2022-10-01T13:11:25.254Z,2.33
2022-10-01T13:13:54.331Z,2.13
2022-10-01T13:16:30.924Z,1.83
2022-10-01T13:19:07.158Z,2.00
2022-10-01T13:21:49.528Z,2.00
2022-10-01T13:24:26.688Z,1.70
2022-10-01T13:27:02.045Z,1.70
2022-10-01T13:29:46.017Z,1.50
2022-10-01T13:32:34.200Z,1.47
2022-10-01T13:35:03.791Z,1.47
2022-10-01T13:37:38.324Z,1.60
2022-10-01T13:40:22.293Z,2.20
2022-10-01T13:42:51.749Z,1.20
2022-10-01T13:45:27.745Z,1.47
2022-10-01T13:48:15.892Z,1.47
2022-10-01T13:50:56.675Z,1.33
2022-10-01T13:53:26.685Z,1.50
2022-10-01T13:55:56.839Z,1.77
2022-10-01T13:58:33.035Z,2.27
2022-10-01T14:01:03.517Z,1.40
2022-10-01T14:03:49.517Z,1.63
2022-10-01T14:06:23.779Z,1.43
2022-10-01T14:08:55.584Z,1.23
2022-10-01T14:11:43.795Z,0.97
2022-10-01T14:14:32.115Z,1.10
2022-10-01T14:17:01.501Z,1.50
2022-10-01T14:19:31.752Z,1.10
2022-10-01T14:22:13.848Z,3.57
2022-10-01T14:24:58.626Z,3.33
2022-10-01T14:27:34.379Z,1.50
2022-10-01T14:30:07.395Z,1.03
2022-10-01T14:32:53.297Z,1.63
2022-10-01T14:35:32.471Z,1.70
2022-10-01T14:38:02.223Z,1.33
2022-10-01T14:40:38.640Z,1.33
2022-10-01T14:43:17.954Z,1.27
2022-10-01T14:45:58.311Z,1.83
2022-10-01T14:48:27.990Z,1.60
2022-10-01T14:50:59.033Z,1.23
2022-10-01T14:53:28.970Z,1.67
2022-10-01T14:56:02.806Z,1.33
2022-10-01T14:58:35.029Z,1.47
2022-10-01T15:01:02.963Z,1.90
2022-10-01T15:03:37.855Z,2.27
2022-10-01T15:06:14.212Z,1.83
2022-10-01T15:08:43.804Z,1.67
2022-10-01T15:11:17.362Z,3.63
2022-10-01T15:13:47.406Z,1.67
2022-10-01T15:16:18.735Z,1.50
2022-10-01T15:18:50.750Z,1.80
2022-10-01T15:21:24.198Z,2.20
2022-10-01T15:23:52.352Z,1.90
2022-10-01T15:26:23.619Z,1.80
2022-10-01T15:29:03.366Z,1.80
2022-10-01T15:31:31.590Z,1.97
2022-10-01T15:34:02.042Z,2.97
2022-10-01T15:36:32.734Z,2.63
2022-10-01T15:39:03.428Z,2.37
2022-10-01T15:41:33.386Z,2.03
2022-10-01T15:44:04.403Z,1.70
2022-10-01T15:46:35.950Z,1.90
2022-10-01T15:49:18.931Z,2.20
2022-10-01T15:52:18.016Z,2.37
2022-10-01T15:54:47.390Z,2.00
2022-10-01T15:57:20.947Z,2.87
2022-10-01T15:59:51.208Z,3.13
2022-10-01T16:02:22.055Z,2.33
2022-10-01T16:04:52.762Z,3.37
2022-10-01T16:07:28.319Z,1.80
2022-10-01T16:09:59.437Z,2.17
2022-10-01T16:12:29.123Z,1.90
2022-10-01T16:15:02.233Z,2.30
2022-10-01T16:17:34.860Z,1.50
2022-10-01T16:20:37.022Z,2.07
2022-10-01T16:23:50.335Z,1.90
2022-10-01T16:26:46.415Z,1.70
2022-10-01T16:29:25.147Z,1.60
2022-10-01T16:31:53.332Z,1.63
2022-10-01T16:34:21.856Z,1.70
2022-10-01T16:36:50.242Z,1.37
2022-10-01T16:39:18.140Z,2.57
2022-10-01T16:42:06.315Z,1.47
2022-10-01T16:44:40.779Z,2.20
2022-10-01T16:47:11.249Z,1.47
2022-10-01T16:49:39.040Z,1.57
2022-10-01T16:52:06.878Z,1.80
2022-10-01T16:54:35.157Z,1.97
2022-10-01T16:57:04.515Z,1.40
2022-10-01T16:59:33.895Z,1.27
2022-10-01T17:02:02.222Z,1.73
2022-10-01T17:04:34.068Z,1.13
2022-10-01T17:07:02.267Z,1.13
2022-10-01T17:09:30.044Z,2.40
2022-10-01T17:11:58.154Z,1.30
2022-10-01T17:14:27.764Z,1.67
2022-10-01T17:16:55.632Z,1.50
2022-10-01T17:19:24.488Z,1.83
2022-10-01T17:21:53.123Z,1.60
2022-10-01T17:24:21.067Z,1.27
2022-10-01T17:26:48.860Z,1.53
2022-10-01T17:29:16.678Z,1.43
2022-10-01T17:31:47.733Z,1.70
2022-10-01T17:34:15.567Z,1.77
2022-10-01T17:36:43.373Z,1.53
2022-10-01T17:39:11.122Z,1.50
2022-10-01T17:41:38.980Z,1.80
2022-10-01T17:44:06.732Z,2.63
2022-10-01T17:46:34.684Z,1.33
2022-10-01T17:49:04.111Z,2.43
2022-10-01T17:51:32.173Z,1.37
2022-10-01T17:54:02.447Z,1.40
2022-10-01T17:56:32.571Z,1.30
2022-10-01T17:59:03.487Z,1.20
2022-10-01T18:01:31.476Z,1.40
2022-10-01T18:04:00.671Z,1.53
2022-10-01T18:06:30.941Z,1.50
2022-10-01T18:08:58.801Z,1.20
2022-10-01T18:11:28.533Z,1.30
2022-10-01T18:13:56.658Z,1.60
2022-10-01T18:16:24.869Z,1.30
2022-10-01T18:21:45.764Z,1.20
2022-10-01T18:24:13.750Z,1.47
2022-10-01T18:26:41.559Z,1.30
2022-10-01T18:29:09.445Z,1.30
2022-10-01T18:31:38.888Z,1.43
2022-10-01T18:34:16.483Z,1.63
2022-10-01T18:36:54.609Z,1.20
2022-10-01T18:39:32.768Z,1.10
2022-10-01T18:42:00.594Z,1.00
2022-10-01T18:44:28.396Z,1.37
2022-10-01T18:47:19.978Z,1.97
2022-10-01T18:50:11.660Z,1.10
2022-10-01T18:52:51.524Z,1.80
2022-10-01T18:55:33.944Z,2.00
2022-10-01T18:58:19.214Z,1.50
2022-10-01T19:00:57.289Z,1.10
2022-10-01T19:03:54.202Z,1.67
2022-10-01T19:06:36.632Z,1.43
2022-10-01T19:09:22.252Z,1.20
2022-10-01T19:12:01.550Z,1.83
2022-10-01T19:14:47.763Z,1.23
2022-10-01T19:17:28.796Z,1.57
2022-10-01T19:20:13.614Z,1.20
2022-10-01T19:22:55.845Z,1.40
2022-10-01T19:25:31.579Z,1.10
2022-10-01T19:28:13.100Z,1.20
2022-10-01T19:30:49.770Z,1.73
2022-10-01T19:33:20.416Z,1.10
2022-10-01T19:35:54.603Z,2.03
2022-10-01T19:38:29.460Z,1.93
2022-10-01T19:41:03.946Z,1.10
2022-10-01T19:43:38.786Z,1.13
2022-10-01T19:46:15.133Z,0.93
2022-10-01T19:48:48.854Z,1.50
2022-10-01T19:51:22.127Z,1.03
2022-10-01T19:53:56.376Z,1.40
2022-10-01T19:56:29.620Z,1.90
2022-10-01T19:58:58.212Z,1.20
2022-10-01T20:01:35.321Z,1.23
2022-10-01T20:04:06.086Z,1.40
2022-10-01T20:06:36.282Z,1.00
2022-10-01T20:09:16.966Z,0.93
2022-10-01T20:11:53.836Z,1.00
2022-10-01T20:14:50.612Z,1.23
2022-10-01T20:17:25.279Z,1.80
2022-10-01T20:20:01.848Z,1.00
2022-10-01T20:22:37.541Z,1.80
2022-10-01T20:25:15.359Z,0.80
2022-10-01T20:27:58.806Z,1.17
2022-10-01T20:30:31.304Z,1.00
2022-10-01T20:33:05.380Z,1.57
2022-10-01T20:35:40.517Z,3.00
2022-10-01T20:38:14.224Z,1.00
2022-10-01T20:40:49.450Z,1.27
2022-10-01T20:43:23.340Z,0.83
2022-10-01T20:45:53.545Z,1.50
2022-10-01T20:48:25.213Z,1.17
2022-10-01T20:50:55.483Z,1.23
2022-10-01T20:53:33.903Z,1.10
2022-10-01T20:56:05.935Z,0.73
2022-10-01T20:58:43.737Z,1.50
2022-10-01T21:01:18.764Z,1.83
2022-10-01T21:03:52.741Z,1.97
2022-10-01T21:06:26.632Z,1.00
2022-10-01T21:09:01.086Z,2.30
2022-10-01T21:11:34.143Z,1.20
2022-10-01T21:14:13.874Z,1.00
2022-10-01T21:17:03.653Z,1.20
2022-10-01T21:19:49.892Z,4.00
2022-10-01T21:22:34.359Z,1.33
2022-10-01T21:25:13.580Z,1.53
2022-10-01T21:28:00.574Z,1.07
2022-10-01T21:30:42.124Z,0.80
2022-10-01T21:33:22.104Z,2.63
2022-10-01T21:35:57.820Z,0.90
2022-10-01T21:38:31.111Z,1.00
2022-10-01T21:41:17.461Z,1.00
2022-10-01T21:44:00.387Z,1.27
2022-10-01T21:46:41.182Z,1.40
2022-10-01T21:49:23.854Z,0.97
2022-10-01T21:52:05.008Z,0.90
2022-10-01T21:54:56.650Z,0.60
2022-10-01T21:57:48.518Z,1.10
2022-10-01T22:00:19.332Z,1.97
2022-10-01T22:02:59.986Z,1.87
2022-10-01T22:05:37.270Z,1.00
2022-10-01T22:08:18.661Z,0.73
2022-10-01T22:10:49.491Z,1.77
2022-10-01T22:13:21.668Z,1.37
2022-10-01T22:15:53.046Z,0.90
2022-10-01T22:18:31.321Z,1.53
2022-10-01T22:21:01.655Z,3.07
2022-10-01T22:23:34.572Z,2.70
2022-10-01T22:26:07.039Z,1.37
2022-10-01T22:28:38.867Z,2.40
2022-10-01T22:31:11.676Z,2.40
2022-10-01T22:33:48.305Z,1.70
2022-10-01T22:36:20.734Z,1.33
2022-10-01T22:38:53.902Z,1.33
2022-10-01T22:41:29.360Z,1.67
2022-10-01T22:43:57.375Z,1.30
2022-10-01T22:46:50.541Z,2.03
2022-10-01T22:49:34.027Z,1.30
2022-10-01T22:52:14.436Z,1.70
2022-10-01T22:54:55.874Z,1.20
2022-10-01T22:57:49.991Z,1.07
2022-10-01T23:00:18.737Z,1.83
2022-10-01T23:02:53.622Z,1.63
2022-10-01T23:05:37.787Z,1.90
2022-10-01T23:08:14.235Z,1.37
2022-10-01T23:10:55.157Z,1.47
2022-10-01T23:13:31.032Z,1.50
2022-10-01T23:16:05.947Z,2.27
2022-10-01T23:18:42.857Z,2.17
2022-10-01T23:21:24.615Z,2.53
2022-10-01T23:24:01.350Z,1.13
2022-10-01T23:26:36.031Z,2.43
2022-10-01T23:29:18.249Z,1.43
2022-10-01T23:31:55.565Z,1.70
2022-10-01T23:34:32.521Z,2.07
2022-10-01T23:37:14.309Z,2.07
2022-10-01T23:39:48.303Z,2.83
2022-10-01T23:42:26.999Z,2.17
2022-10-01T23:45:03.663Z,2.30
2022-10-01T23:47:39.186Z,2.07
2022-10-01T23:50:19.118Z,2.23
2022-10-01T23:52:55.065Z,3.17
2022-10-01T23:55:57.364Z,2.90
2022-10-01T23:58:27.924Z,2.83
